sensor_id;sensor_type;location;lat;lon;timestamp;P1;durP1;ratioP1;P2;durP2;ratioP2
51495;SDS011;37572;52.094;4.870;2023-07-24T00:02:01;7.25;;;4.90;;
51495;SDS011;37572;52.094;4.870;2023-07-24T00:04:26;6.60;;;5.03;;
51495;SDS011;37572;52.094;4.870;2023-07-24T00:06:51;7.10;;;4.23;;
51495;SDS011;37572;52.094;4.870;2023-07-24T00:09:17;8.57;;;4.70;;
51495;SDS011;37572;52.094;4.870;2023-07-24T00:11:42;7.13;;;4.33;;
51495;SDS011;37572;52.094;4.870;2023-07-24T00:14:07;7.05;;;4.45;;
51495;SDS011;37572;52.094;4.870;2023-07-24T00:16:33;5.80;;;4.17;;
51495;SDS011;37572;52.094;4.870;2023-07-24T00:18:58;7.27;;;4.50;;
51495;SDS011;37572;52.094;4.870;2023-07-24T00:21:23;6.38;;;4.55;;
51495;SDS011;37572;52.094;4.870;2023-07-24T00:23:48;7.43;;;4.50;;
51495;SDS011;37572;52.094;4.870;2023-07-24T00:26:14;6.67;;;4.50;;
51495;SDS011;37572;52.094;4.870;2023-07-24T00:28:39;7.83;;;4.03;;
51495;SDS011;37572;52.094;4.870;2023-07-24T00:31:05;6.28;;;3.72;;
51495;SDS011;37572;52.094;4.870;2023-07-24T00:39:39;6.00;;;3.30;;
51495;SDS011;37572;52.094;4.870;2023-07-24T00:42:05;6.37;;;4.30;;
51495;SDS011;37572;52.094;4.870;2023-07-24T00:44:30;8.18;;;4.13;;
51495;SDS011;37572;52.094;4.870;2023-07-24T00:46:56;6.97;;;4.27;;
51495;SDS011;37572;52.094;4.870;2023-07-24T00:49:22;6.85;;;3.95;;
51495;SDS011;37572;52.094;4.870;2023-07-24T00:51:47;6.18;;;4.15;;
51495;SDS011;37572;52.094;4.870;2023-07-24T00:54:13;7.68;;;4.80;;
51495;SDS011;37572;52.094;4.870;2023-07-24T00:56:41;7.28;;;4.60;;
51495;SDS011;37572;52.094;4.870;2023-07-24T00:59:07;7.75;;;4.82;;
51495;SDS011;37572;52.094;4.870;2023-07-24T01:01:32;7.22;;;3.83;;
51495;SDS011;37572;52.094;4.870;2023-07-24T01:17:01;7.65;;;4.25;;
51495;SDS011;37572;52.094;4.870;2023-07-24T01:19:35;8.10;;;4.13;;
51495;SDS011;37572;52.094;4.870;2023-07-24T01:22:10;8.65;;;4.40;;
51495;SDS011;37572;52.094;4.870;2023-07-24T01:25:00;9.85;;;4.68;;
51495;SDS011;37572;52.094;4.870;2023-07-24T01:27:28;8.57;;;4.72;;
51495;SDS011;37572;52.094;4.870;2023-07-24T01:29:53;6.90;;;3.93;;
51495;SDS011;37572;52.094;4.870;2023-07-24T01:32:19;7.83;;;4.30;;
51495;SDS011;37572;52.094;4.870;2023-07-24T01:34:44;7.97;;;4.63;;
51495;SDS011;37572;52.094;4.870;2023-07-24T01:37:10;8.07;;;4.22;;
51495;SDS011;37572;52.094;4.870;2023-07-24T01:39:37;8.63;;;4.00;;
51495;SDS011;37572;52.094;4.870;2023-07-24T01:42:05;9.38;;;4.90;;
51495;SDS011;37572;52.094;4.870;2023-07-24T01:44:30;8.63;;;4.38;;
51495;SDS011;37572;52.094;4.870;2023-07-24T01:46:56;8.23;;;4.50;;
51495;SDS011;37572;52.094;4.870;2023-07-24T01:49:21;7.97;;;4.28;;
51495;SDS011;37572;52.094;4.870;2023-07-24T01:51:46;8.85;;;4.50;;
51495;SDS011;37572;52.094;4.870;2023-07-24T01:54:12;8.17;;;4.90;;
51495;SDS011;37572;52.094;4.870;2023-07-24T01:56:39;7.32;;;4.30;;
51495;SDS011;37572;52.094;4.870;2023-07-24T01:59:04;6.57;;;4.20;;
51495;SDS011;37572;52.094;4.870;2023-07-24T02:01:30;8.57;;;4.18;;
51495;SDS011;37572;52.094;4.870;2023-07-24T02:03:56;6.85;;;3.55;;
51495;SDS011;37572;52.094;4.870;2023-07-24T02:06:21;7.50;;;4.07;;
51495;SDS011;37572;52.094;4.870;2023-07-24T02:08:46;7.43;;;4.23;;
51495;SDS011;37572;52.094;4.870;2023-07-24T02:11:13;8.30;;;4.57;;
51495;SDS011;37572;52.094;4.870;2023-07-24T02:13:45;6.43;;;3.88;;
51495;SDS011;37572;52.094;4.870;2023-07-24T02:16:11;5.43;;;3.00;;
51495;SDS011;37572;52.094;4.870;2023-07-24T02:18:41;7.95;;;4.63;;
51495;SDS011;37572;52.094;4.870;2023-07-24T02:21:07;7.38;;;4.80;;
51495;SDS011;37572;52.094;4.870;2023-07-24T02:23:32;7.37;;;3.90;;
51495;SDS011;37572;52.094;4.870;2023-07-24T02:25:57;7.05;;;3.80;;
51495;SDS011;37572;52.094;4.870;2023-07-24T02:28:23;6.10;;;3.72;;
51495;SDS011;37572;52.094;4.870;2023-07-24T02:30:48;7.10;;;4.17;;
51495;SDS011;37572;52.094;4.870;2023-07-24T02:33:13;8.52;;;4.32;;
51495;SDS011;37572;52.094;4.870;2023-07-24T02:35:39;6.55;;;4.00;;
51495;SDS011;37572;52.094;4.870;2023-07-24T02:38:06;8.30;;;4.57;;
51495;SDS011;37572;52.094;4.870;2023-07-24T02:40:31;8.88;;;4.07;;
51495;SDS011;37572;52.094;4.870;2023-07-24T02:42:56;7.70;;;4.68;;
51495;SDS011;37572;52.094;4.870;2023-07-24T02:45:22;7.32;;;4.60;;
51495;SDS011;37572;52.094;4.870;2023-07-24T02:47:47;7.28;;;4.25;;
51495;SDS011;37572;52.094;4.870;2023-07-24T02:50:13;10.00;;;4.60;;
51495;SDS011;37572;52.094;4.870;2023-07-24T02:52:38;8.33;;;4.70;;
51495;SDS011;37572;52.094;4.870;2023-07-24T02:55:03;8.05;;;4.93;;
51495;SDS011;37572;52.094;4.870;2023-07-24T02:57:29;6.95;;;4.38;;
51495;SDS011;37572;52.094;4.870;2023-07-24T02:59:54;7.63;;;4.63;;
51495;SDS011;37572;52.094;4.870;2023-07-24T03:02:19;10.03;;;5.37;;
51495;SDS011;37572;52.094;4.870;2023-07-24T03:04:45;8.37;;;4.80;;
51495;SDS011;37572;52.094;4.870;2023-07-24T03:07:10;10.30;;;5.05;;
51495;SDS011;37572;52.094;4.870;2023-07-24T03:09:35;9.20;;;5.53;;
51495;SDS011;37572;52.094;4.870;2023-07-24T03:12:01;9.60;;;6.20;;
51495;SDS011;37572;52.094;4.870;2023-07-24T03:14:26;9.10;;;5.60;;
51495;SDS011;37572;52.094;4.870;2023-07-24T03:16:51;8.43;;;5.20;;
51495;SDS011;37572;52.094;4.870;2023-07-24T03:19:16;8.97;;;5.27;;
51495;SDS011;37572;52.094;4.870;2023-07-24T03:21:42;10.45;;;6.25;;
51495;SDS011;37572;52.094;4.870;2023-07-24T03:24:08;11.23;;;7.07;;
51495;SDS011;37572;52.094;4.870;2023-07-24T03:26:33;12.17;;;6.03;;
51495;SDS011;37572;52.094;4.870;2023-07-24T03:28:59;12.33;;;6.50;;
51495;SDS011;37572;52.094;4.870;2023-07-24T03:31:24;11.90;;;7.00;;
51495;SDS011;37572;52.094;4.870;2023-07-24T03:33:50;14.80;;;6.97;;
51495;SDS011;37572;52.094;4.870;2023-07-24T03:36:15;11.07;;;6.70;;
51495;SDS011;37572;52.094;4.870;2023-07-24T03:38:40;12.07;;;7.00;;
51495;SDS011;37572;52.094;4.870;2023-07-24T03:41:06;11.67;;;6.93;;
51495;SDS011;37572;52.094;4.870;2023-07-24T03:43:31;10.30;;;6.47;;
51495;SDS011;37572;52.094;4.870;2023-07-24T03:45:56;11.82;;;6.75;;
51495;SDS011;37572;52.094;4.870;2023-07-24T03:48:22;11.10;;;6.67;;
51495;SDS011;37572;52.094;4.870;2023-07-24T03:50:47;10.83;;;6.50;;
51495;SDS011;37572;52.094;4.870;2023-07-24T03:53:15;12.40;;;7.38;;
51495;SDS011;37572;52.094;4.870;2023-07-24T03:55:40;12.30;;;7.00;;
51495;SDS011;37572;52.094;4.870;2023-07-24T03:58:05;8.37;;;5.63;;
51495;SDS011;37572;52.094;4.870;2023-07-24T04:00:30;11.30;;;5.97;;
51495;SDS011;37572;52.094;4.870;2023-07-24T04:02:56;10.47;;;5.83;;
51495;SDS011;37572;52.094;4.870;2023-07-24T04:05:21;11.70;;;5.83;;
51495;SDS011;37572;52.094;4.870;2023-07-24T04:07:46;10.57;;;5.93;;
51495;SDS011;37572;52.094;4.870;2023-07-24T04:10:12;10.00;;;5.83;;
51495;SDS011;37572;52.094;4.870;2023-07-24T04:12:37;9.90;;;6.13;;
51495;SDS011;37572;52.094;4.870;2023-07-24T04:15:02;12.88;;;6.15;;
51495;SDS011;37572;52.094;4.870;2023-07-24T04:17:28;11.05;;;5.57;;
51495;SDS011;37572;52.094;4.870;2023-07-24T04:19:53;8.98;;;5.35;;
51495;SDS011;37572;52.094;4.870;2023-07-24T04:22:19;9.85;;;5.65;;
51495;SDS011;37572;52.094;4.870;2023-07-24T04:24:44;9.77;;;6.03;;
51495;SDS011;37572;52.094;4.870;2023-07-24T04:27:09;10.73;;;6.33;;
51495;SDS011;37572;52.094;4.870;2023-07-24T04:29:34;11.45;;;6.22;;
51495;SDS011;37572;52.094;4.870;2023-07-24T04:32:00;11.90;;;6.05;;
51495;SDS011;37572;52.094;4.870;2023-07-24T04:34:25;9.03;;;5.30;;
51495;SDS011;37572;52.094;4.870;2023-07-24T04:36:50;10.40;;;6.60;;
51495;SDS011;37572;52.094;4.870;2023-07-24T04:39:16;10.70;;;6.03;;
51495;SDS011;37572;52.094;4.870;2023-07-24T04:41:41;12.53;;;6.70;;
51495;SDS011;37572;52.094;4.870;2023-07-24T04:44:06;9.93;;;5.55;;
51495;SDS011;37572;52.094;4.870;2023-07-24T04:46:32;10.33;;;6.13;;
51495;SDS011;37572;52.094;4.870;2023-07-24T04:48:57;10.83;;;5.60;;
51495;SDS011;37572;52.094;4.870;2023-07-24T04:51:22;12.47;;;6.77;;
51495;SDS011;37572;52.094;4.870;2023-07-24T04:53:47;12.83;;;7.53;;
51495;SDS011;37572;52.094;4.870;2023-07-24T04:56:13;13.30;;;6.68;;
51495;SDS011;37572;52.094;4.870;2023-07-24T04:58:38;12.83;;;6.00;;
51495;SDS011;37572;52.094;4.870;2023-07-24T05:01:04;12.00;;;6.90;;
51495;SDS011;37572;52.094;4.870;2023-07-24T05:03:29;17.83;;;8.32;;
51495;SDS011;37572;52.094;4.870;2023-07-24T05:05:55;12.18;;;6.35;;
51495;SDS011;37572;52.094;4.870;2023-07-24T05:08:21;14.15;;;7.47;;
51495;SDS011;37572;52.094;4.870;2023-07-24T05:10:46;13.80;;;7.10;;
51495;SDS011;37572;52.094;4.870;2023-07-24T05:13:11;12.47;;;6.43;;
51495;SDS011;37572;52.094;4.870;2023-07-24T05:15:37;14.52;;;7.45;;
51495;SDS011;37572;52.094;4.870;2023-07-24T05:18:02;10.60;;;7.00;;
51495;SDS011;37572;52.094;4.870;2023-07-24T05:20:27;9.27;;;6.00;;
51495;SDS011;37572;52.094;4.870;2023-07-24T05:22:53;11.73;;;7.43;;
51495;SDS011;37572;52.094;4.870;2023-07-24T05:25:18;12.03;;;6.80;;
51495;SDS011;37572;52.094;4.870;2023-07-24T05:27:43;11.57;;;6.10;;
51495;SDS011;37572;52.094;4.870;2023-07-24T05:30:09;14.70;;;7.20;;
51495;SDS011;37572;52.094;4.870;2023-07-24T05:32:34;13.07;;;6.63;;
51495;SDS011;37572;52.094;4.870;2023-07-24T05:34:59;11.47;;;5.27;;
51495;SDS011;37572;52.094;4.870;2023-07-24T05:37:25;11.97;;;5.40;;
51495;SDS011;37572;52.094;4.870;2023-07-24T05:39:50;10.40;;;5.30;;
51495;SDS011;37572;52.094;4.870;2023-07-24T05:42:16;11.90;;;4.78;;
51495;SDS011;37572;52.094;4.870;2023-07-24T05:44:41;10.60;;;4.80;;
51495;SDS011;37572;52.094;4.870;2023-07-24T05:47:06;11.30;;;5.37;;
51495;SDS011;37572;52.094;4.870;2023-07-24T05:49:32;8.20;;;4.13;;
51495;SDS011;37572;52.094;4.870;2023-07-24T05:51:57;9.63;;;4.13;;
51495;SDS011;37572;52.094;4.870;2023-07-24T05:54:22;8.30;;;4.50;;
51495;SDS011;37572;52.094;4.870;2023-07-24T05:56:47;7.97;;;3.60;;
51495;SDS011;37572;52.094;4.870;2023-07-24T05:59:13;7.28;;;3.35;;
51495;SDS011;37572;52.094;4.870;2023-07-24T06:01:38;6.18;;;3.33;;
51495;SDS011;37572;52.094;4.870;2023-07-24T06:04:04;6.17;;;2.80;;
51495;SDS011;37572;52.094;4.870;2023-07-24T06:06:30;8.45;;;4.20;;
51495;SDS011;37572;52.094;4.870;2023-07-24T06:08:56;5.97;;;2.88;;
51495;SDS011;37572;52.094;4.870;2023-07-24T06:11:21;9.25;;;3.47;;
51495;SDS011;37572;52.094;4.870;2023-07-24T06:13:47;6.30;;;2.95;;
51495;SDS011;37572;52.094;4.870;2023-07-24T06:16:13;8.50;;;3.08;;
51495;SDS011;37572;52.094;4.870;2023-07-24T06:18:39;7.07;;;2.67;;
51495;SDS011;37572;52.094;4.870;2023-07-24T06:21:04;8.65;;;3.33;;
51495;SDS011;37572;52.094;4.870;2023-07-24T06:23:29;6.88;;;3.35;;
51495;SDS011;37572;52.094;4.870;2023-07-24T06:25:55;8.07;;;3.63;;
51495;SDS011;37572;52.094;4.870;2023-07-24T06:28:20;7.65;;;2.80;;
51495;SDS011;37572;52.094;4.870;2023-07-24T06:30:46;8.88;;;3.60;;
51495;SDS011;37572;52.094;4.870;2023-07-24T06:33:11;8.38;;;3.35;;
51495;SDS011;37572;52.094;4.870;2023-07-24T06:35:36;9.57;;;3.63;;
51495;SDS011;37572;52.094;4.870;2023-07-24T06:38:02;10.27;;;3.35;;
51495;SDS011;37572;52.094;4.870;2023-07-24T06:40:27;6.87;;;3.13;;
51495;SDS011;37572;52.094;4.870;2023-07-24T06:42:52;7.40;;;3.20;;
51495;SDS011;37572;52.094;4.870;2023-07-24T06:45:18;7.05;;;3.03;;
51495;SDS011;37572;52.094;4.870;2023-07-24T06:47:43;10.23;;;3.78;;
51495;SDS011;37572;52.094;4.870;2023-07-24T06:50:09;7.17;;;2.77;;
51495;SDS011;37572;52.094;4.870;2023-07-24T06:52:34;8.23;;;3.78;;
51495;SDS011;37572;52.094;4.870;2023-07-24T06:54:59;9.13;;;3.42;;
51495;SDS011;37572;52.094;4.870;2023-07-24T06:57:25;6.68;;;3.30;;
51495;SDS011;37572;52.094;4.870;2023-07-24T06:59:50;6.80;;;3.47;;
51495;SDS011;37572;52.094;4.870;2023-07-24T07:02:16;7.35;;;3.50;;
51495;SDS011;37572;52.094;4.870;2023-07-24T07:04:41;8.25;;;2.97;;
51495;SDS011;37572;52.094;4.870;2023-07-24T07:07:07;11.23;;;3.63;;
51495;SDS011;37572;52.094;4.870;2023-07-24T07:09:32;7.63;;;3.47;;
51495;SDS011;37572;52.094;4.870;2023-07-24T07:11:57;7.87;;;3.93;;
51495;SDS011;37572;52.094;4.870;2023-07-24T07:14:23;8.83;;;4.03;;
51495;SDS011;37572;52.094;4.870;2023-07-24T07:16:48;9.45;;;3.55;;
51495;SDS011;37572;52.094;4.870;2023-07-24T07:19:13;7.30;;;3.47;;
51495;SDS011;37572;52.094;4.870;2023-07-24T07:21:39;7.13;;;3.92;;
51495;SDS011;37572;52.094;4.870;2023-07-24T07:24:04;9.00;;;3.65;;
51495;SDS011;37572;52.094;4.870;2023-07-24T07:26:30;7.32;;;3.65;;
51495;SDS011;37572;52.094;4.870;2023-07-24T07:28:55;8.48;;;4.03;;
51495;SDS011;37572;52.094;4.870;2023-07-24T07:31:21;7.63;;;4.45;;
51495;SDS011;37572;52.094;4.870;2023-07-24T07:33:46;7.63;;;3.85;;
51495;SDS011;37572;52.094;4.870;2023-07-24T07:36:11;7.90;;;4.00;;
51495;SDS011;37572;52.094;4.870;2023-07-24T07:38:37;7.43;;;3.85;;
51495;SDS011;37572;52.094;4.870;2023-07-24T07:41:04;7.53;;;3.60;;
51495;SDS011;37572;52.094;4.870;2023-07-24T07:43:30;9.48;;;4.68;;
51495;SDS011;37572;52.094;4.870;2023-07-24T07:45:56;11.88;;;4.38;;
51495;SDS011;37572;52.094;4.870;2023-07-24T07:48:21;8.70;;;4.03;;
51495;SDS011;37572;52.094;4.870;2023-07-24T07:50:51;6.75;;;3.60;;
51495;SDS011;37572;52.094;4.870;2023-07-24T07:53:16;7.80;;;3.95;;
51495;SDS011;37572;52.094;4.870;2023-07-24T07:55:42;9.15;;;4.10;;
51495;SDS011;37572;52.094;4.870;2023-07-24T07:58:07;7.97;;;3.78;;
51495;SDS011;37572;52.094;4.870;2023-07-24T08:00:32;9.15;;;4.03;;
51495;SDS011;37572;52.094;4.870;2023-07-24T08:02:58;7.23;;;3.80;;
51495;SDS011;37572;52.094;4.870;2023-07-24T08:05:24;8.48;;;4.18;;
51495;SDS011;37572;52.094;4.870;2023-07-24T08:07:50;7.78;;;3.80;;
51495;SDS011;37572;52.094;4.870;2023-07-24T08:10:15;8.67;;;4.50;;
51495;SDS011;37572;52.094;4.870;2023-07-24T08:12:41;8.60;;;5.00;;
51495;SDS011;37572;52.094;4.870;2023-07-24T08:15:07;10.20;;;4.57;;
51495;SDS011;37572;52.094;4.870;2023-07-24T08:17:33;10.95;;;4.47;;
51495;SDS011;37572;52.094;4.870;2023-07-24T08:19:58;10.83;;;4.93;;
51495;SDS011;37572;52.094;4.870;2023-07-24T08:22:23;7.00;;;4.67;;
51495;SDS011;37572;52.094;4.870;2023-07-24T08:24:49;10.68;;;4.93;;
51495;SDS011;37572;52.094;4.870;2023-07-24T08:27:16;8.85;;;4.30;;
51495;SDS011;37572;52.094;4.870;2023-07-24T08:29:41;8.70;;;4.63;;
51495;SDS011;37572;52.094;4.870;2023-07-24T08:32:07;9.80;;;5.27;;
51495;SDS011;37572;52.094;4.870;2023-07-24T08:34:32;8.75;;;4.63;;
51495;SDS011;37572;52.094;4.870;2023-07-24T08:36:58;7.68;;;5.13;;
51495;SDS011;37572;52.094;4.870;2023-07-24T08:39:23;8.43;;;4.97;;
51495;SDS011;37572;52.094;4.870;2023-07-24T08:41:48;7.60;;;4.38;;
51495;SDS011;37572;52.094;4.870;2023-07-24T08:44:14;9.45;;;5.53;;
51495;SDS011;37572;52.094;4.870;2023-07-24T08:46:40;9.25;;;5.65;;
51495;SDS011;37572;52.094;4.870;2023-07-24T08:49:13;8.93;;;5.07;;
51495;SDS011;37572;52.094;4.870;2023-07-24T08:51:40;8.32;;;4.97;;
51495;SDS011;37572;52.094;4.870;2023-07-24T08:54:06;10.05;;;5.90;;
51495;SDS011;37572;52.094;4.870;2023-07-24T08:56:32;10.43;;;5.13;;
51495;SDS011;37572;52.094;4.870;2023-07-24T08:58:58;9.00;;;5.38;;
51495;SDS011;37572;52.094;4.870;2023-07-24T09:01:23;7.90;;;5.33;;
51495;SDS011;37572;52.094;4.870;2023-07-24T09:03:49;11.48;;;6.00;;
51495;SDS011;37572;52.094;4.870;2023-07-24T09:06:15;8.80;;;6.22;;
51495;SDS011;37572;52.094;4.870;2023-07-24T09:08:41;9.30;;;5.20;;
51495;SDS011;37572;52.094;4.870;2023-07-24T09:11:08;11.20;;;7.68;;
51495;SDS011;37572;52.094;4.870;2023-07-24T09:13:38;12.57;;;8.50;;
51495;SDS011;37572;52.094;4.870;2023-07-24T09:16:07;10.23;;;6.53;;
51495;SDS011;37572;52.094;4.870;2023-07-24T09:18:39;12.02;;;6.95;;
51495;SDS011;37572;52.094;4.870;2023-07-24T09:21:06;9.55;;;6.00;;
51495;SDS011;37572;52.094;4.870;2023-07-24T09:23:31;11.73;;;6.70;;
51495;SDS011;37572;52.094;4.870;2023-07-24T09:25:56;10.98;;;6.07;;
51495;SDS011;37572;52.094;4.870;2023-07-24T09:28:22;11.27;;;6.18;;
51495;SDS011;37572;52.094;4.870;2023-07-24T09:30:55;10.35;;;5.38;;
51495;SDS011;37572;52.094;4.870;2023-07-24T09:33:22;8.18;;;5.57;;
51495;SDS011;37572;52.094;4.870;2023-07-24T09:36:07;6.80;;;4.68;;
51495;SDS011;37572;52.094;4.870;2023-07-24T09:38:33;7.80;;;5.05;;
51495;SDS011;37572;52.094;4.870;2023-07-24T09:41:00;8.20;;;4.57;;
51495;SDS011;37572;52.094;4.870;2023-07-24T09:43:27;8.70;;;4.65;;
51495;SDS011;37572;52.094;4.870;2023-07-24T09:45:53;9.90;;;4.40;;
51495;SDS011;37572;52.094;4.870;2023-07-24T09:48:21;9.30;;;5.07;;
51495;SDS011;37572;52.094;4.870;2023-07-24T09:50:53;8.73;;;4.72;;
51495;SDS011;37572;52.094;4.870;2023-07-24T09:56:03;8.63;;;4.93;;
51495;SDS011;37572;52.094;4.870;2023-07-24T10:00:57;7.53;;;5.32;;
51495;SDS011;37572;52.094;4.870;2023-07-24T10:03:23;7.65;;;4.72;;
51495;SDS011;37572;52.094;4.870;2023-07-24T10:05:50;9.20;;;5.15;;
51495;SDS011;37572;52.094;4.870;2023-07-24T10:08:16;11.40;;;5.68;;
51495;SDS011;37572;52.094;4.870;2023-07-24T10:10:43;7.85;;;5.72;;
51495;SDS011;37572;52.094;4.870;2023-07-24T10:13:09;8.95;;;5.47;;
51495;SDS011;37572;52.094;4.870;2023-07-24T10:15:42;7.40;;;4.40;;
51495;SDS011;37572;52.094;4.870;2023-07-24T10:18:09;8.98;;;4.45;;
51495;SDS011;37572;52.094;4.870;2023-07-24T10:20:38;9.55;;;4.22;;
51495;SDS011;37572;52.094;4.870;2023-07-24T10:23:06;8.00;;;4.05;;
51495;SDS011;37572;52.094;4.870;2023-07-24T10:25:36;9.95;;;4.53;;
51495;SDS011;37572;52.094;4.870;2023-07-24T10:28:06;8.07;;;4.07;;
51495;SDS011;37572;52.094;4.870;2023-07-24T10:30:36;7.72;;;4.45;;
51495;SDS011;37572;52.094;4.870;2023-07-24T10:33:12;10.32;;;4.72;;
51495;SDS011;37572;52.094;4.870;2023-07-24T10:35:53;7.70;;;3.90;;
51495;SDS011;37572;52.094;4.870;2023-07-24T10:38:19;7.45;;;4.25;;
51495;SDS011;37572;52.094;4.870;2023-07-24T10:41:01;8.07;;;4.30;;
51495;SDS011;37572;52.094;4.870;2023-07-24T10:43:28;7.10;;;3.83;;
51495;SDS011;37572;52.094;4.870;2023-07-24T10:45:53;6.90;;;3.90;;
51495;SDS011;37572;52.094;4.870;2023-07-24T10:48:20;6.38;;;3.30;;
51495;SDS011;37572;52.094;4.870;2023-07-24T10:50:48;6.35;;;3.00;;
51495;SDS011;37572;52.094;4.870;2023-07-24T10:53:18;5.53;;;3.60;;
51495;SDS011;37572;52.094;4.870;2023-07-24T10:55:45;6.05;;;3.65;;
51495;SDS011;37572;52.094;4.870;2023-07-24T10:58:12;5.65;;;3.53;;
51495;SDS011;37572;52.094;4.870;2023-07-24T11:00:39;6.55;;;3.22;;
51495;SDS011;37572;52.094;4.870;2023-07-24T11:03:07;4.80;;;3.22;;
51495;SDS011;37572;52.094;4.870;2023-07-24T11:05:34;4.78;;;3.22;;
51495;SDS011;37572;52.094;4.870;2023-07-24T11:07:59;5.63;;;3.30;;
51495;SDS011;37572;52.094;4.870;2023-07-24T11:10:24;5.55;;;3.20;;
51495;SDS011;37572;52.094;4.870;2023-07-24T11:12:50;4.70;;;3.13;;
51495;SDS011;37572;52.094;4.870;2023-07-24T11:15:22;7.60;;;3.35;;
51495;SDS011;37572;52.094;4.870;2023-07-24T11:17:49;7.78;;;3.90;;
51495;SDS011;37572;52.094;4.870;2023-07-24T11:20:16;7.33;;;4.20;;
51495;SDS011;37572;52.094;4.870;2023-07-24T11:22:42;8.18;;;3.80;;
51495;SDS011;37572;52.094;4.870;2023-07-24T11:25:09;6.45;;;3.72;;
51495;SDS011;37572;52.094;4.870;2023-07-24T11:27:39;6.05;;;3.38;;
51495;SDS011;37572;52.094;4.870;2023-07-24T11:30:06;6.68;;;3.85;;
51495;SDS011;37572;52.094;4.870;2023-07-24T11:32:32;6.10;;;3.17;;
51495;SDS011;37572;52.094;4.870;2023-07-24T11:34:58;5.17;;;3.37;;
51495;SDS011;37572;52.094;4.870;2023-07-24T11:37:24;5.43;;;3.75;;
51495;SDS011;37572;52.094;4.870;2023-07-24T11:39:57;6.28;;;4.15;;
51495;SDS011;37572;52.094;4.870;2023-07-24T11:42:26;6.13;;;3.47;;
51495;SDS011;37572;52.094;4.870;2023-07-24T11:44:52;6.05;;;3.58;;
51495;SDS011;37572;52.094;4.870;2023-07-24T11:47:18;4.85;;;3.47;;
51495;SDS011;37572;52.094;4.870;2023-07-24T11:49:43;9.30;;;3.72;;
51495;SDS011;37572;52.094;4.870;2023-07-24T11:52:13;7.22;;;4.00;;
51495;SDS011;37572;52.094;4.870;2023-07-24T11:54:39;5.38;;;3.88;;
51495;SDS011;37572;52.094;4.870;2023-07-24T11:57:16;6.80;;;4.38;;
51495;SDS011;37572;52.094;4.870;2023-07-24T11:59:41;6.63;;;3.72;;
51495;SDS011;37572;52.094;4.870;2023-07-24T12:02:09;4.40;;;3.30;;
51495;SDS011;37572;52.094;4.870;2023-07-24T12:04:35;4.82;;;3.28;;
51495;SDS011;37572;52.094;4.870;2023-07-24T12:07:01;6.05;;;2.42;;
51495;SDS011;37572;52.094;4.870;2023-07-24T12:09:29;4.43;;;2.53;;
51495;SDS011;37572;52.094;4.870;2023-07-24T12:11:57;4.18;;;2.45;;
51495;SDS011;37572;52.094;4.870;2023-07-24T12:14:23;4.80;;;2.85;;
51495;SDS011;37572;52.094;4.870;2023-07-24T12:16:49;4.40;;;2.63;;
51495;SDS011;37572;52.094;4.870;2023-07-24T12:19:14;4.40;;;2.88;;
51495;SDS011;37572;52.094;4.870;2023-07-24T12:21:39;3.83;;;2.47;;
51495;SDS011;37572;52.094;4.870;2023-07-24T12:24:05;4.70;;;2.88;;
51495;SDS011;37572;52.094;4.870;2023-07-24T12:26:30;5.10;;;2.65;;
51495;SDS011;37572;52.094;4.870;2023-07-24T12:28:55;5.78;;;2.38;;
51495;SDS011;37572;52.094;4.870;2023-07-24T12:31:22;3.63;;;2.17;;
51495;SDS011;37572;52.094;4.870;2023-07-24T12:33:47;3.70;;;2.72;;
51495;SDS011;37572;52.094;4.870;2023-07-24T12:36:12;4.05;;;2.40;;
51495;SDS011;37572;52.094;4.870;2023-07-24T12:38:38;3.37;;;2.20;;
51495;SDS011;37572;52.094;4.870;2023-07-24T12:41:03;4.87;;;2.20;;
51495;SDS011;37572;52.094;4.870;2023-07-24T12:43:28;3.37;;;2.20;;
51495;SDS011;37572;52.094;4.870;2023-07-24T12:45:54;3.30;;;2.25;;
51495;SDS011;37572;52.094;4.870;2023-07-24T12:48:19;4.30;;;2.13;;
51495;SDS011;37572;52.094;4.870;2023-07-24T12:50:44;3.97;;;1.70;;
51495;SDS011;37572;52.094;4.870;2023-07-24T12:53:10;3.53;;;2.70;;
51495;SDS011;37572;52.094;4.870;2023-07-24T12:55:35;3.20;;;1.67;;
51495;SDS011;37572;52.094;4.870;2023-07-24T12:58:00;3.53;;;2.20;;
51495;SDS011;37572;52.094;4.870;2023-07-24T13:00:28;4.97;;;1.98;;
51495;SDS011;37572;52.094;4.870;2023-07-24T13:02:54;5.25;;;2.03;;
51495;SDS011;37572;52.094;4.870;2023-07-24T13:05:20;3.55;;;2.05;;
51495;SDS011;37572;52.094;4.870;2023-07-24T13:07:45;4.70;;;1.88;;
51495;SDS011;37572;52.094;4.870;2023-07-24T13:10:11;3.45;;;1.98;;
51495;SDS011;37572;52.094;4.870;2023-07-24T13:12:36;3.05;;;2.20;;
51495;SDS011;37572;52.094;4.870;2023-07-24T13:15:02;3.58;;;1.88;;
51495;SDS011;37572;52.094;4.870;2023-07-24T13:17:27;4.72;;;2.05;;
51495;SDS011;37572;52.094;4.870;2023-07-24T13:19:54;5.53;;;1.58;;
51495;SDS011;37572;52.094;4.870;2023-07-24T13:22:19;4.73;;;1.80;;
51495;SDS011;37572;52.094;4.870;2023-07-24T13:24:45;3.93;;;1.90;;
51495;SDS011;37572;52.094;4.870;2023-07-24T13:27:10;4.55;;;1.80;;
51495;SDS011;37572;52.094;4.870;2023-07-24T13:29:35;4.50;;;1.80;;
51495;SDS011;37572;52.094;4.870;2023-07-24T13:32:00;5.65;;;1.92;;
51495;SDS011;37572;52.094;4.870;2023-07-24T13:34:26;4.37;;;1.70;;
51495;SDS011;37572;52.094;4.870;2023-07-24T13:36:51;5.63;;;2.08;;
51495;SDS011;37572;52.094;4.870;2023-07-24T13:39:16;5.03;;;1.90;;
51495;SDS011;37572;52.094;4.870;2023-07-24T13:41:42;4.00;;;2.25;;
51495;SDS011;37572;52.094;4.870;2023-07-24T13:44:07;2.75;;;1.80;;
51495;SDS011;37572;52.094;4.870;2023-07-24T13:46:33;4.40;;;1.88;;
51495;SDS011;37572;52.094;4.870;2023-07-24T13:48:58;3.53;;;1.42;;
51495;SDS011;37572;52.094;4.870;2023-07-24T13:51:23;4.18;;;1.60;;
51495;SDS011;37572;52.094;4.870;2023-07-24T13:53:49;4.57;;;1.85;;
51495;SDS011;37572;52.094;4.870;2023-07-24T13:56:16;4.25;;;1.58;;
51495;SDS011;37572;52.094;4.870;2023-07-24T13:58:43;4.80;;;2.28;;
51495;SDS011;37572;52.094;4.870;2023-07-24T14:01:08;4.22;;;1.88;;
51495;SDS011;37572;52.094;4.870;2023-07-24T14:03:35;3.95;;;1.63;;
51495;SDS011;37572;52.094;4.870;2023-07-24T14:06:00;5.07;;;1.42;;
51495;SDS011;37572;52.094;4.870;2023-07-24T14:08:25;3.55;;;1.42;;
51495;SDS011;37572;52.094;4.870;2023-07-24T14:10:51;5.47;;;1.48;;
51495;SDS011;37572;52.094;4.870;2023-07-24T14:13:16;3.78;;;1.88;;
51495;SDS011;37572;52.094;4.870;2023-07-24T14:15:42;3.38;;;1.85;;
51495;SDS011;37572;52.094;4.870;2023-07-24T14:18:07;3.83;;;1.20;;
51495;SDS011;37572;52.094;4.870;2023-07-24T14:20:33;3.60;;;1.60;;
51495;SDS011;37572;52.094;4.870;2023-07-24T14:22:58;4.03;;;1.42;;
51495;SDS011;37572;52.094;4.870;2023-07-24T14:25:23;3.90;;;1.65;;
51495;SDS011;37572;52.094;4.870;2023-07-24T14:27:49;4.50;;;1.65;;
51495;SDS011;37572;52.094;4.870;2023-07-24T14:30:14;3.03;;;1.17;;
51495;SDS011;37572;52.094;4.870;2023-07-24T14:32:40;2.97;;;1.53;;
51495;SDS011;37572;52.094;4.870;2023-07-24T14:35:05;3.78;;;1.20;;
51495;SDS011;37572;52.094;4.870;2023-07-24T14:37:31;3.22;;;1.15;;
51495;SDS011;37572;52.094;4.870;2023-07-24T14:39:56;3.07;;;1.00;;
51495;SDS011;37572;52.094;4.870;2023-07-24T14:42:21;5.23;;;1.30;;
51495;SDS011;37572;52.094;4.870;2023-07-24T14:44:47;6.93;;;1.23;;
51495;SDS011;37572;52.094;4.870;2023-07-24T14:47:12;3.50;;;1.00;;
51495;SDS011;37572;52.094;4.870;2023-07-24T14:49:38;4.97;;;1.77;;
51495;SDS011;37572;52.094;4.870;2023-07-24T14:52:04;6.90;;;1.75;;
51495;SDS011;37572;52.094;4.870;2023-07-24T14:54:29;4.72;;;1.42;;
51495;SDS011;37572;52.094;4.870;2023-07-24T14:56:55;4.70;;;1.20;;
51495;SDS011;37572;52.094;4.870;2023-07-24T14:59:20;4.25;;;1.08;;
51495;SDS011;37572;52.094;4.870;2023-07-24T15:01:46;2.70;;;0.93;;
51495;SDS011;37572;52.094;4.870;2023-07-24T15:04:11;3.05;;;1.15;;